Huvudsida
METAR-TAF:

METAR-TAF

Flygplatser :

Kuressaare flygplats

Kuressaare, Estland

latitud: 58-13-48N, longitud: 022-30-34E, höjd: 4 m

Aktuellt väderrapport

Denna rapport gjordes för 39 minuter sedan, klockan 09:50 UTC
Vind 13 kt från ost/nordost, varierande mellan nordost och ost
Temperatur 20°C
Fuktighet 23%
Tryck 1022 hPa
Sikt 10 km eller mer
Inga moln under 1 500 m eller inga cumulonimbus

METAR: EEKE 210950Z 07013KT 040V100 CAVOK 20/M02 Q1022

Tid: 13:29 (10:29 UTC)

Väderprognos

Denna rapport gjordes för 7 timmar och 29 minuter sedan, klockan 03:00 UTC
Prognos gäller från 21 kl. 04 UTC till 21 kl. 10 UTC
Vind 10 kt från ost/nordost
Sikt 10 km eller mer
Spridda moln på en höjd av 3000 ft

TAF: EEKE 210300Z 2104/2110 06010KT 9999 SCT030

Aktuella väderrapporter och prognoser från 4000 flygplatser (METAR- och TAF-rapporter).

De tillgängliga stationerna syns som gula och röda prickar på kartan.

För musen över prickarna för att se namnen på stationerna.

Klicka sedan för att få väderrapporter och prognoser.

För att ändra kartan: Klicka på de gröna knapparna med ett svart kors på för att zooma in; den gröna knappen med ett streck på för att zooma ut; eller på de gröna pilarna för angränsande kartor.


METAR-TAF: